createdAt,value
2019-05-20T00:00:08.025Z,7.83
2019-05-20T00:02:38.122Z,6.97
2019-05-20T00:05:07.604Z,9.83
2019-05-20T00:07:37.205Z,7.93
2019-05-20T00:10:08.729Z,8.23
2019-05-20T00:12:38.257Z,8.33
2019-05-20T00:15:08.010Z,9.23
2019-05-20T00:17:37.401Z,8.67
2019-05-20T00:20:07.231Z,8.37
2019-05-20T00:22:36.967Z,7.80
2019-05-20T00:25:07.443Z,7.60
2019-05-20T00:27:37.267Z,6.37
2019-05-20T00:30:07.053Z,6.93
2019-05-20T00:32:41.035Z,6.43
2019-05-20T00:35:07.730Z,6.40
2019-05-20T00:37:37.313Z,5.70
2019-05-20T00:40:07.708Z,5.80
2019-05-20T00:42:37.347Z,5.20
2019-05-20T00:45:07.691Z,6.20
2019-05-20T00:47:37.283Z,5.50
2019-05-20T00:50:26.099Z,5.83
2019-05-20T00:52:55.588Z,6.00
2019-05-20T00:55:51.289Z,5.97
2019-05-20T00:58:21.368Z,5.60
2019-05-20T01:00:52.924Z,6.47
2019-05-20T01:03:23.512Z,6.10
2019-05-20T01:05:53.183Z,6.40
2019-05-20T01:08:23.545Z,6.03
2019-05-20T01:10:53.137Z,10.67
2019-05-20T01:13:23.411Z,6.55
2019-05-20T01:15:53.079Z,6.67
2019-05-20T01:18:23.431Z,6.28
2019-05-20T01:20:53.208Z,6.63
2019-05-20T01:23:23.459Z,7.05
2019-05-20T01:25:52.867Z,7.37
2019-05-20T01:28:23.351Z,7.80
2019-05-20T01:30:53.224Z,6.13
2019-05-20T01:33:23.367Z,6.75
2019-05-20T01:35:53.266Z,8.23
2019-05-20T01:38:23.472Z,6.78
2019-05-20T01:40:53.291Z,6.43
2019-05-20T01:43:23.567Z,6.65
2019-05-20T01:45:53.282Z,7.30
2019-05-20T01:48:23.516Z,6.65
2019-05-20T01:50:53.456Z,6.70
2019-05-20T01:53:23.566Z,6.78
2019-05-20T01:55:53.182Z,7.20
2019-05-20T01:58:23.428Z,7.95
2019-05-20T02:00:52.969Z,7.23
2019-05-20T02:03:31.507Z,7.25
2019-05-20T02:05:54.737Z,7.40
2019-05-20T02:08:24.448Z,6.87
2019-05-20T02:10:56.481Z,6.50
2019-05-20T02:13:27.030Z,7.23
2019-05-20T02:16:07.005Z,7.07
2019-05-20T02:18:36.597Z,8.10
2019-05-20T02:21:06.256Z,7.40
2019-05-20T02:23:35.720Z,8.20
2019-05-20T02:26:05.350Z,7.73
2019-05-20T02:28:34.789Z,7.60
2019-05-20T02:31:04.340Z,8.47
2019-05-20T02:33:50.038Z,9.63
2019-05-20T02:36:05.611Z,7.93
2019-05-20T02:38:35.431Z,8.77
2019-05-20T02:41:05.395Z,8.10
2019-05-20T02:43:34.886Z,8.83
2019-05-20T02:46:05.050Z,9.83
2019-05-20T02:48:37.473Z,10.70
2019-05-20T02:51:07.403Z,9.30
2019-05-20T02:53:36.987Z,9.40
2019-05-20T02:56:06.616Z,9.10
2019-05-20T02:58:36.460Z,9.93
2019-05-20T03:01:06.291Z,11.77
2019-05-20T03:03:35.860Z,11.00
2019-05-20T03:06:05.516Z,11.27
2019-05-20T03:08:35.634Z,12.55
2019-05-20T03:11:05.324Z,12.43
2019-05-20T03:13:34.893Z,12.23
2019-05-20T03:16:04.416Z,12.53
2019-05-20T03:18:33.979Z,13.63
2019-05-20T03:21:03.482Z,14.17
2019-05-20T03:23:33.603Z,14.78
2019-05-20T03:26:03.058Z,15.67
2019-05-20T03:28:32.645Z,15.25
2019-05-20T03:31:02.159Z,16.20
2019-05-20T03:33:31.709Z,16.93
2019-05-20T03:36:01.334Z,16.33
2019-05-20T03:38:30.894Z,15.10
2019-05-20T03:41:00.467Z,17.40
2019-05-20T03:43:29.963Z,17.00
2019-05-20T03:45:59.485Z,18.47
2019-05-20T03:48:28.978Z,17.73
2019-05-20T03:50:58.625Z,17.97
2019-05-20T03:53:28.279Z,18.97
2019-05-20T03:55:58.552Z,20.57
2019-05-20T03:58:28.007Z,17.35
2019-05-20T04:00:57.522Z,20.47
2019-05-20T04:03:27.428Z,19.80
2019-05-20T04:05:57.812Z,19.03
2019-05-20T04:08:27.587Z,22.17
2019-05-20T04:10:57.079Z,19.07
2019-05-20T04:13:26.682Z,20.63
2019-05-20T04:15:56.354Z,20.13
2019-05-20T04:18:26.702Z,22.60
2019-05-20T04:20:56.416Z,20.63
2019-05-20T04:23:25.904Z,22.97
2019-05-20T04:25:55.463Z,21.80
2019-05-20T04:28:25.007Z,20.30
2019-05-20T04:30:54.499Z,23.67
2019-05-20T04:33:24.890Z,24.33
2019-05-20T04:35:54.475Z,22.60
2019-05-20T04:38:25.116Z,21.23
2019-05-20T04:40:54.530Z,24.00
2019-05-20T04:43:23.974Z,22.87
2019-05-20T04:45:53.484Z,23.43
2019-05-20T04:48:23.876Z,22.50
2019-05-20T04:50:54.568Z,21.23
2019-05-20T04:53:24.129Z,22.07
2019-05-20T04:55:53.672Z,20.27
2019-05-20T04:58:23.894Z,18.82
2019-05-20T05:00:57.113Z,18.37
2019-05-20T05:03:26.683Z,18.20
2019-05-20T05:05:56.505Z,18.60
2019-05-20T05:08:25.974Z,20.97
2019-05-20T05:10:55.516Z,18.33
2019-05-20T05:13:24.991Z,19.37
2019-05-20T05:15:55.532Z,21.57
2019-05-20T05:18:25.124Z,19.63
2019-05-20T05:20:54.572Z,19.60
2019-05-20T05:23:24.017Z,22.27
2019-05-20T05:25:53.567Z,19.00
2019-05-20T05:28:23.784Z,22.75
2019-05-20T05:30:53.464Z,22.00
2019-05-20T05:33:23.809Z,19.20
2019-05-20T05:35:53.913Z,22.67
2019-05-20T05:38:23.880Z,21.80
2019-05-20T05:40:53.559Z,22.70
2019-05-20T05:43:23.843Z,22.70
2019-05-20T05:45:54.190Z,22.23
2019-05-20T05:48:23.921Z,24.67
2019-05-20T05:50:53.531Z,23.97
2019-05-20T05:53:23.868Z,24.80
2019-05-20T05:55:54.145Z,25.03
2019-05-20T05:58:23.893Z,25.00
2019-05-20T06:00:53.669Z,27.03
2019-05-20T06:03:23.904Z,25.85
2019-05-20T06:06:10.587Z,25.43
2019-05-20T06:08:24.992Z,31.27
2019-05-20T06:10:54.566Z,27.87
2019-05-20T06:13:24.047Z,25.33
2019-05-20T06:15:54.818Z,26.13
2019-05-20T06:18:24.660Z,29.43
2019-05-20T06:20:54.214Z,27.53
2019-05-20T06:23:23.967Z,28.67
2019-05-20T06:25:53.808Z,31.90
2019-05-20T06:28:23.962Z,31.75
2019-05-20T06:30:53.594Z,33.03
2019-05-20T06:33:23.891Z,33.50
2019-05-20T06:35:53.587Z,34.87
2019-05-20T06:38:34.327Z,32.75
2019-05-20T06:41:05.941Z,32.33
2019-05-20T06:43:35.938Z,35.20
2019-05-20T06:46:05.653Z,32.70
2019-05-20T06:48:35.145Z,34.80
2019-05-20T06:51:04.719Z,37.33
2019-05-20T06:53:34.154Z,36.13
2019-05-20T06:56:03.692Z,32.13
2019-05-20T06:58:33.168Z,31.73
2019-05-20T07:01:02.687Z,34.10
2019-05-20T07:03:32.161Z,30.50
2019-05-20T07:06:01.757Z,31.97
2019-05-20T07:08:31.248Z,32.73
2019-05-20T07:11:00.799Z,32.83
2019-05-20T07:13:30.281Z,33.00
2019-05-20T07:15:59.772Z,32.77
2019-05-20T07:18:29.266Z,35.03
2019-05-20T07:20:59.707Z,33.67
2019-05-20T07:23:29.255Z,32.20
2019-05-20T07:26:00.011Z,31.70
2019-05-20T07:28:29.743Z,31.25
2019-05-20T07:30:59.275Z,29.90
2019-05-20T07:33:28.960Z,29.67
2019-05-20T07:35:59.329Z,30.47
2019-05-20T07:38:28.975Z,31.53
2019-05-20T07:40:58.700Z,28.57
2019-05-20T07:43:28.160Z,28.87
2019-05-20T07:45:57.810Z,26.47
2019-05-20T07:48:27.512Z,26.10
2019-05-20T07:50:57.211Z,28.33
2019-05-20T07:53:27.024Z,28.63
2019-05-20T07:56:00.138Z,26.43
2019-05-20T07:58:33.482Z,22.17
2019-05-20T08:01:01.408Z,27.43
2019-05-20T08:03:31.031Z,23.73
2019-05-20T08:06:00.782Z,25.63
2019-05-20T08:08:30.329Z,26.17
2019-05-20T08:10:59.844Z,24.10
2019-05-20T08:13:29.422Z,23.23
2019-05-20T08:15:58.843Z,25.53
2019-05-20T08:18:28.445Z,22.30
2019-05-20T08:20:57.948Z,22.40
2019-05-20T08:23:27.399Z,23.30
2019-05-20T08:25:56.874Z,20.43
2019-05-20T08:28:26.419Z,21.43
2019-05-20T08:30:56.975Z,21.30
2019-05-20T08:33:26.483Z,22.37
2019-05-20T08:35:55.930Z,24.23
2019-05-20T08:38:25.406Z,22.87
2019-05-20T08:40:54.929Z,23.60
2019-05-20T08:43:24.494Z,23.00
2019-05-20T08:45:54.036Z,24.33
2019-05-20T08:48:24.007Z,21.90
2019-05-20T08:50:53.510Z,19.53
2019-05-20T08:53:24.135Z,19.62
2019-05-20T08:55:53.911Z,19.83
2019-05-20T08:58:24.074Z,20.07
2019-05-20T09:00:53.693Z,20.43
2019-05-20T09:03:24.110Z,22.10
2019-05-20T09:05:53.941Z,22.30
2019-05-20T09:08:24.170Z,22.13
2019-05-20T09:10:53.903Z,20.43
2019-05-20T09:13:24.287Z,21.95
2019-05-20T09:15:53.931Z,20.93
2019-05-20T09:18:24.267Z,24.15
2019-05-20T09:20:53.997Z,24.07
2019-05-20T09:23:24.386Z,20.77
2019-05-20T09:25:54.007Z,25.70
2019-05-20T09:28:24.302Z,20.25
2019-05-20T09:30:53.961Z,25.40
2019-05-20T09:33:24.557Z,26.12
2019-05-20T09:35:54.098Z,22.37
2019-05-20T09:38:24.346Z,20.85
2019-05-20T09:40:54.134Z,20.93
2019-05-20T09:43:24.426Z,22.98
2019-05-20T09:46:06.305Z,23.67
2019-05-20T09:48:26.251Z,21.33
2019-05-20T09:50:55.958Z,18.67
2019-05-20T09:53:25.507Z,20.43
2019-05-20T09:55:55.114Z,18.17
2019-05-20T09:58:24.703Z,17.23
2019-05-20T10:00:54.282Z,21.17
2019-05-20T10:03:24.297Z,19.10
2019-05-20T10:05:54.152Z,18.50
2019-05-20T10:08:37.719Z,18.70
2019-05-20T10:10:59.378Z,20.47
2019-05-20T10:13:26.749Z,20.00
2019-05-20T10:15:56.323Z,18.67
2019-05-20T10:18:36.917Z,19.43
2019-05-20T10:20:57.520Z,20.20
2019-05-20T10:23:27.363Z,18.90
2019-05-20T10:25:57.314Z,17.40
2019-05-20T10:28:27.170Z,28.50
2019-05-20T10:30:57.079Z,18.63
2019-05-20T10:33:26.586Z,20.50
2019-05-20T10:35:56.160Z,18.07
2019-05-20T10:38:26.067Z,18.23
2019-05-20T10:40:55.683Z,19.67
2019-05-20T10:43:25.315Z,19.97
2019-05-20T10:45:55.680Z,20.07
2019-05-20T10:48:25.383Z,17.73
2019-05-20T10:50:55.040Z,19.43
2019-05-20T10:53:28.147Z,19.33
2019-05-20T10:55:56.188Z,17.30
2019-05-20T10:58:26.327Z,20.85
2019-05-20T11:01:02.173Z,21.47
2019-05-20T11:03:27.274Z,25.33
2019-05-20T11:05:56.694Z,20.13
2019-05-20T11:08:26.526Z,22.93
2019-05-20T11:10:56.236Z,22.97
2019-05-20T11:13:26.284Z,21.82
2019-05-20T11:15:55.794Z,22.57
2019-05-20T11:18:25.388Z,23.97
2019-05-20T11:20:55.098Z,19.33
2019-05-20T11:23:24.538Z,19.50
2019-05-20T11:25:54.204Z,19.53
2019-05-20T11:28:24.420Z,18.35
2019-05-20T11:30:54.140Z,19.77
2019-05-20T11:33:24.411Z,19.92
2019-05-20T11:35:54.140Z,20.50
2019-05-20T11:38:24.348Z,21.30
2019-05-20T11:40:54.144Z,21.03
2019-05-20T11:43:24.485Z,21.93
2019-05-20T11:45:54.208Z,27.70
2019-05-20T11:48:24.483Z,23.22
2019-05-20T11:50:54.150Z,25.27
2019-05-20T11:53:24.499Z,25.00
2019-05-20T11:55:54.169Z,27.80
2019-05-20T11:58:24.473Z,27.17
2019-05-20T12:00:54.145Z,27.33
2019-05-20T12:03:24.414Z,29.67
2019-05-20T12:05:53.899Z,33.00
2019-05-20T12:08:24.563Z,31.60
2019-05-20T12:10:54.273Z,30.40
2019-05-20T12:13:24.479Z,35.78
2019-05-20T12:15:53.897Z,34.70
2019-05-20T12:18:24.558Z,31.95
2019-05-20T12:20:54.242Z,33.13
2019-05-20T12:23:24.479Z,32.83
2019-05-20T12:25:54.259Z,31.30
2019-05-20T12:28:24.520Z,30.82
2019-05-20T12:30:54.173Z,30.43
2019-05-20T12:33:24.548Z,31.45
2019-05-20T12:35:54.211Z,33.40
2019-05-20T12:38:24.624Z,34.58
2019-05-20T12:40:54.356Z,32.10
2019-05-20T12:43:25.448Z,31.10
2019-05-20T12:45:54.856Z,32.10
2019-05-20T12:48:24.545Z,31.63
2019-05-20T12:50:54.242Z,28.73
2019-05-20T12:53:24.570Z,28.27
2019-05-20T12:55:54.258Z,29.43
2019-05-20T12:58:24.583Z,29.70
2019-05-20T13:00:54.315Z,29.93
2019-05-20T13:03:24.717Z,29.98
2019-05-20T13:05:54.383Z,28.03
2019-05-20T13:08:24.582Z,27.87
2019-05-20T13:10:54.279Z,31.87
2019-05-20T13:13:24.702Z,28.70
2019-05-20T13:15:54.377Z,22.33
2019-05-20T13:18:24.662Z,25.82
2019-05-20T13:20:54.386Z,20.53
2019-05-20T13:23:24.725Z,28.87
2019-05-20T13:25:54.457Z,19.27
2019-05-20T13:28:24.647Z,11.05
2019-05-20T13:30:54.409Z,10.83
2019-05-20T13:33:24.652Z,7.75
2019-05-20T13:35:54.322Z,7.60
2019-05-20T13:38:24.617Z,7.35
2019-05-20T13:40:54.507Z,7.87
2019-05-20T13:43:24.731Z,10.32
2019-05-20T13:45:54.463Z,8.70
2019-05-20T13:48:26.284Z,10.15
2019-05-20T13:50:55.755Z,8.47
2019-05-20T13:53:25.536Z,9.60
2019-05-20T13:55:55.044Z,9.87
2019-05-20T13:58:24.777Z,10.40
2019-05-20T14:00:54.442Z,8.97
2019-05-20T14:03:24.700Z,10.75
2019-05-20T14:05:54.499Z,9.53
2019-05-20T14:08:24.738Z,9.20
2019-05-20T14:11:03.498Z,12.47
2019-05-20T14:13:25.816Z,9.40
2019-05-20T14:15:55.450Z,9.30
2019-05-20T14:18:25.068Z,8.73
2019-05-20T14:20:54.737Z,12.83
2019-05-20T14:23:24.776Z,12.80
2019-05-20T14:25:54.536Z,10.27
2019-05-20T14:28:24.830Z,11.70
2019-05-20T14:30:54.504Z,9.43
2019-05-20T14:33:24.768Z,11.28
2019-05-20T14:35:54.575Z,9.27
2019-05-20T14:38:24.818Z,9.90
2019-05-20T14:40:54.471Z,8.83
2019-05-20T14:43:24.825Z,8.40
2019-05-20T14:45:54.509Z,8.13
2019-05-20T14:48:24.770Z,10.08
2019-05-20T14:50:54.531Z,10.60
2019-05-20T14:53:24.915Z,10.93
2019-05-20T14:55:54.702Z,10.10
2019-05-20T14:58:24.771Z,9.63
2019-05-20T15:00:54.495Z,9.07
2019-05-20T15:03:24.773Z,8.40
2019-05-20T15:05:59.628Z,7.93
2019-05-20T15:08:33.671Z,7.00
2019-05-20T15:11:00.328Z,8.17
2019-05-20T15:13:29.828Z,6.93
2019-05-20T15:15:59.665Z,6.53
2019-05-20T15:18:29.620Z,6.83
2019-05-20T15:20:59.154Z,5.43
2019-05-20T15:23:29.058Z,7.17
2019-05-20T15:25:58.570Z,6.07
2019-05-20T15:28:29.792Z,8.33
2019-05-20T15:30:59.618Z,7.73
2019-05-20T15:33:29.241Z,7.73
2019-05-20T15:35:58.736Z,11.77
2019-05-20T15:38:28.181Z,10.10
2019-05-20T15:40:57.639Z,10.50
2019-05-20T15:43:27.133Z,13.27
2019-05-20T15:45:56.774Z,12.57
2019-05-20T15:48:26.624Z,12.70
2019-05-20T15:50:56.249Z,13.57
2019-05-20T15:53:25.904Z,18.57
2019-05-20T15:55:55.695Z,14.43
2019-05-20T15:58:25.182Z,11.07
2019-05-20T16:00:54.816Z,9.80
2019-05-20T16:03:24.904Z,8.73
2019-05-20T16:05:54.601Z,11.00
2019-05-20T16:08:24.899Z,10.78
2019-05-20T16:10:54.730Z,10.43
2019-05-20T16:13:24.834Z,10.43
2019-05-20T16:15:54.629Z,9.07
2019-05-20T16:18:24.996Z,10.50
2019-05-20T16:20:54.692Z,11.90
2019-05-20T16:23:25.456Z,10.98
2019-05-20T16:25:55.080Z,10.03
2019-05-20T16:28:24.991Z,11.13
2019-05-20T16:30:54.788Z,11.70
2019-05-20T16:33:25.020Z,11.15
2019-05-20T16:35:54.776Z,11.63
2019-05-20T16:38:25.132Z,12.58
2019-05-20T16:40:54.786Z,11.50
2019-05-20T16:43:25.060Z,12.45
2019-05-20T16:45:54.696Z,16.07
2019-05-20T16:48:25.030Z,14.23
2019-05-20T16:50:54.694Z,14.90
2019-05-20T16:53:25.591Z,14.60
2019-05-20T16:55:55.064Z,16.53
2019-05-20T16:58:25.078Z,17.63
2019-05-20T17:00:54.815Z,17.33
2019-05-20T17:03:25.036Z,16.62
2019-05-20T17:05:54.764Z,15.03
2019-05-20T17:08:26.666Z,13.85
2019-05-20T17:10:56.315Z,12.53
2019-05-20T17:13:26.051Z,13.90
2019-05-20T17:15:55.802Z,14.03
2019-05-20T17:18:25.382Z,14.23
2019-05-20T17:20:54.911Z,13.97
2019-05-20T17:23:25.199Z,13.85
2019-05-20T17:25:56.165Z,14.30
2019-05-20T17:28:26.042Z,15.37
2019-05-20T17:30:55.811Z,16.30
2019-05-20T17:33:26.399Z,17.93
2019-05-20T17:36:06.162Z,16.90
2019-05-20T17:38:36.073Z,20.63
2019-05-20T17:41:05.891Z,18.80
2019-05-20T17:43:37.151Z,20.53
2019-05-20T17:46:06.923Z,22.40
2019-05-20T17:48:36.465Z,20.30
2019-05-20T17:51:05.962Z,32.30
2019-05-20T17:53:35.943Z,23.47
2019-05-20T17:56:05.747Z,24.83
2019-05-20T17:58:37.340Z,26.17
2019-05-20T18:01:15.507Z,24.70
2019-05-20T18:03:38.109Z,25.27
2019-05-20T18:06:07.576Z,24.83
2019-05-20T18:08:38.768Z,24.80
2019-05-20T18:11:08.627Z,28.07
2019-05-20T18:13:38.524Z,27.05
2019-05-20T18:16:08.170Z,31.43
2019-05-20T18:18:37.965Z,29.02
2019-05-20T18:21:07.846Z,29.20
2019-05-20T18:23:37.423Z,31.33
2019-05-20T18:26:09.644Z,29.03
2019-05-20T18:28:39.319Z,29.87
2019-05-20T18:31:08.993Z,28.77
2019-05-20T18:33:38.933Z,30.23
2019-05-20T18:36:08.463Z,28.57
2019-05-20T18:38:38.121Z,33.40
2019-05-20T18:41:07.979Z,33.47
2019-05-20T18:43:37.461Z,32.73
2019-05-20T18:46:07.079Z,32.27
2019-05-20T18:48:36.707Z,33.50
2019-05-20T18:51:06.220Z,35.20
2019-05-20T18:53:36.043Z,38.02
2019-05-20T18:56:05.431Z,34.50
2019-05-20T18:58:35.250Z,37.78
2019-05-20T19:01:04.980Z,32.23
2019-05-20T19:03:34.834Z,49.63
2019-05-20T19:06:04.356Z,31.23
2019-05-20T19:08:34.287Z,40.10
2019-05-20T19:11:04.053Z,37.07
2019-05-20T19:13:33.642Z,31.17
2019-05-20T19:16:03.324Z,31.27
2019-05-20T19:18:33.128Z,25.43
2019-05-20T19:21:02.943Z,26.17
2019-05-20T19:23:32.492Z,27.27
2019-05-20T19:26:02.012Z,26.83
2019-05-20T19:28:31.518Z,33.37
2019-05-20T19:31:01.041Z,29.50
2019-05-20T19:33:30.587Z,29.23
2019-05-20T19:36:00.060Z,27.20
2019-05-20T19:38:34.300Z,25.93
2019-05-20T19:41:01.290Z,26.47
2019-05-20T19:43:31.138Z,23.83
2019-05-20T19:46:00.859Z,24.07
2019-05-20T19:48:30.438Z,24.80
2019-05-20T19:51:00.138Z,24.33
2019-05-20T19:53:29.883Z,21.50
2019-05-20T19:55:59.422Z,21.80
2019-05-20T19:58:29.292Z,19.23
2019-05-20T20:00:59.221Z,20.37
2019-05-20T20:03:29.142Z,18.73
2019-05-20T20:05:58.790Z,15.83
2019-05-20T20:08:28.467Z,16.80
2019-05-20T20:10:58.230Z,14.40
2019-05-20T20:13:28.129Z,14.07
2019-05-20T20:15:57.722Z,16.60
2019-05-20T20:18:27.457Z,17.67
2019-05-20T20:20:57.222Z,14.83
2019-05-20T20:23:26.753Z,16.97
2019-05-20T20:25:56.386Z,17.10
2019-05-20T20:28:26.367Z,16.13
2019-05-20T20:30:57.145Z,14.10
2019-05-20T20:33:26.659Z,18.33
2019-05-20T20:35:56.347Z,15.93
2019-05-20T20:38:26.252Z,11.07
2019-05-20T20:40:57.317Z,11.03
2019-05-20T20:43:26.728Z,8.83
2019-05-20T20:45:56.243Z,10.67
2019-05-20T20:48:25.823Z,8.50
2019-05-20T20:50:55.405Z,11.80
2019-05-20T20:53:25.430Z,11.13
2019-05-20T20:55:55.194Z,11.17
2019-05-20T20:58:26.024Z,10.48
2019-05-20T21:00:55.687Z,9.27
2019-05-20T21:03:25.529Z,8.60
2019-05-20T21:05:55.289Z,9.20
2019-05-20T21:08:25.486Z,6.45
2019-05-20T21:10:55.276Z,6.83
2019-05-20T21:13:25.421Z,6.72
2019-05-20T21:15:58.587Z,6.17
2019-05-20T21:18:27.529Z,8.03
2019-05-20T21:20:57.182Z,8.07
2019-05-20T21:23:26.741Z,8.83
2019-05-20T21:25:56.226Z,9.57
2019-05-20T21:28:25.740Z,8.33
2019-05-20T21:30:55.246Z,10.47
2019-05-20T21:33:25.450Z,11.95
2019-05-20T21:35:55.847Z,12.77
2019-05-20T21:38:25.570Z,11.60
2019-05-20T21:40:55.193Z,14.63
2019-05-20T21:43:25.539Z,16.82
2019-05-20T21:45:55.292Z,13.93
2019-05-20T21:48:25.560Z,17.52
2019-05-20T21:50:55.303Z,15.30
2019-05-20T21:53:25.611Z,15.40
2019-05-20T21:55:55.339Z,16.17
2019-05-20T21:58:25.631Z,13.20
2019-05-20T22:00:55.546Z,12.37
2019-05-20T22:03:25.643Z,14.00
2019-05-20T22:05:55.279Z,11.83
2019-05-20T22:08:45.042Z,12.85
2019-05-20T22:11:14.533Z,14.67
2019-05-20T22:13:43.997Z,12.53
2019-05-20T22:16:13.656Z,11.73
2019-05-20T22:18:43.696Z,11.37
2019-05-20T22:21:15.156Z,11.00
2019-05-20T22:23:46.263Z,11.73
2019-05-20T22:26:15.751Z,11.30
2019-05-20T22:28:45.379Z,9.40
2019-05-20T22:31:14.821Z,9.37
2019-05-20T22:33:44.428Z,13.10
2019-05-20T22:36:13.931Z,11.80
2019-05-20T22:38:43.509Z,11.37
2019-05-20T22:41:12.949Z,11.03
2019-05-20T22:43:42.643Z,10.90
2019-05-20T22:46:12.379Z,12.27
2019-05-20T22:48:41.901Z,10.87
2019-05-20T22:51:11.923Z,13.03
2019-05-20T22:53:41.539Z,13.30
2019-05-20T22:56:11.193Z,10.80
2019-05-20T22:58:40.828Z,11.70
2019-05-20T23:01:10.492Z,11.13
2019-05-20T23:03:54.351Z,7.33
2019-05-20T23:06:13.074Z,6.87
2019-05-20T23:08:42.708Z,8.07
2019-05-20T23:11:12.568Z,4.30
2019-05-20T23:13:42.490Z,3.97
2019-05-20T23:16:12.118Z,5.37
2019-05-20T23:18:41.786Z,6.67
2019-05-20T23:21:11.446Z,6.10
2019-05-20T23:23:41.105Z,6.53
2019-05-20T23:26:10.606Z,6.27
2019-05-20T23:28:40.450Z,8.35
2019-05-20T23:31:09.969Z,9.80
2019-05-20T23:33:39.844Z,9.83
2019-05-20T23:36:09.506Z,9.40
2019-05-20T23:38:39.019Z,12.70
2019-05-20T23:41:10.148Z,14.23
2019-05-20T23:43:39.802Z,14.43
2019-05-20T23:46:09.620Z,19.00
2019-05-20T23:48:39.685Z,13.30
2019-05-20T23:51:09.436Z,14.20
2019-05-20T23:53:39.594Z,13.67
2019-05-20T23:56:09.180Z,13.67
2019-05-20T23:58:38.620Z,13.13
